Time;durP1;ratioP1;P1;durP2;ratioP2;P2;SDS_P1;SDS_P2;PMS_P1;PMS_P2;Temp;Humidity;BMP_temperature;BMP_pressure;BME280_temperature;BME280_humidity;BME280_pressure;Samples;Min_cycle;Max_cycle;Signal;HPM_P1;HPM_P2
2022/06/30 00:01:45;;;;;;;;;;;20.00;99.90;;;;;;4982465;28;19910;-83
2022/06/30 00:04:11;;;;;;;;;;;19.90;99.90;;;;;;4987902;28;19972;-83
2022/06/30 00:06:36;;;;;;;;;;;19.90;99.90;;;;;;4982067;28;19910;-83
2022/06/30 00:09:01;;;;;;;;;;;19.90;99.90;;;;;;4984743;28;19914;-83
2022/06/30 00:11:27;;;;;;;;;;;19.90;99.90;;;;;;4987903;28;20011;-83
2022/06/30 00:13:52;;;;;;;;;;;19.90;99.90;;;;;;4984159;28;19921;-83
2022/06/30 00:16:18;;;;;;;;;;;19.80;99.90;;;;;;4990697;28;19910;-83
2022/06/30 00:18:44;;;;;;;;;;;19.80;99.90;;;;;;4989249;28;19916;-83
2022/06/30 00:21:09;;;;;;;;;;;19.80;99.90;;;;;;4983274;28;20077;-84
2022/06/30 00:23:35;;;;;;;;;;;19.80;99.90;;;;;;4980868;28;19913;-83
2022/06/30 00:26:00;;;;;;;;;;;19.80;99.90;;;;;;4990205;28;19906;-83
2022/06/30 00:28:26;;;;;;;;;;;19.90;99.90;;;;;;4988589;28;19913;-83
2022/06/30 00:30:52;;;;;;;;;;;20.00;99.90;;;;;;4988545;28;20008;-83
2022/06/30 00:33:17;;;;;;;;;;;20.00;99.90;;;;;;4989613;28;20000;-83
2022/06/30 00:35:43;;;;;;;;;;;20.10;99.90;;;;;;4985843;28;20001;-83
2022/06/30 00:38:09;;;;;;;;;;;20.10;99.90;;;;;;4989985;28;19910;-83
2022/06/30 00:40:38;;;;;;;;;;;20.10;99.90;;;;;;4987541;28;19914;-83
2022/06/30 00:43:04;;;;;;;;;;;20.10;99.90;;;;;;4989293;28;19914;-83
2022/06/30 00:45:30;;;;;;;;;;;20.10;99.90;;;;;;4991302;28;20284;-83
2022/06/30 00:47:55;;;;;;;;;;;20.20;99.90;;;;;;4989272;28;19960;-82
2022/06/30 00:50:21;;;;;;;;;;;20.10;99.90;;;;;;4987487;28;19909;-83
2022/06/30 00:52:49;;;;;;;;;;;20.10;99.90;;;;;;4988579;28;19910;-83
2022/06/30 00:55:14;;;;;;;;;;;20.10;99.90;;;;;;4985257;28;20380;-83
2022/06/30 00:57:41;;;;;;;;;;;20.00;99.90;;;;;;4975959;28;19922;-83
2022/06/30 01:00:07;;;;;;;;;;;20.00;99.90;;;;;;4979617;28;20300;-82
2022/06/30 01:02:33;;;;;;;;;;;20.00;99.90;;;;;;4987447;28;19910;-83
2022/06/30 01:04:59;;;;;;;;;;;20.00;99.90;;;;;;4989137;28;19914;-83
2022/06/30 01:07:25;;;;;;;;;;;20.00;99.90;;;;;;4979269;28;20006;-82
2022/06/30 01:12:46;;;;;;;;;;;20.10;99.90;;;;;;4993924;28;19973;-83
2022/06/30 01:15:13;;;;;;;;;;;20.20;99.90;;;;;;4990921;28;19913;-82
2022/06/30 01:17:38;;;;;;;;;;;20.20;99.90;;;;;;4973930;28;20360;-82
2022/06/30 01:20:04;;;;;;;;;;;20.30;99.90;;;;;;4985724;28;20009;-82
2022/06/30 01:22:29;;;;;;;;;;;20.30;99.90;;;;;;4992449;28;19912;-82
2022/06/30 01:24:55;;;;;;;;;;;20.40;99.90;;;;;;4991836;28;19921;-83
2022/06/30 01:27:20;;;;;;;;;;;20.40;99.90;;;;;;4993846;28;19941;-82
2022/06/30 01:29:46;;;;;;;;;;;20.40;99.90;;;;;;4986868;28;19960;-83
2022/06/30 01:32:12;;;;;;;;;;;20.50;99.90;;;;;;4992344;28;19906;-82
2022/06/30 01:34:37;;;;;;;;;;;20.50;99.90;;;;;;4985202;28;20020;-82
2022/06/30 01:37:03;;;;;;;;;;;20.60;99.90;;;;;;4993644;28;20000;-82
2022/06/30 01:39:29;;;;;;;;;;;20.50;99.90;;;;;;4990431;28;19982;-82
2022/06/30 01:41:54;;;;;;;;;;;20.50;99.90;;;;;;4980256;28;19930;-82
2022/06/30 01:44:20;;;;;;;;;;;20.50;99.90;;;;;;4992834;28;19937;-82
2022/06/30 01:46:46;;;;;;;;;;;20.50;99.90;;;;;;4991280;28;20416;-82
2022/06/30 01:49:11;;;;;;;;;;;20.40;99.90;;;;;;4992470;28;19916;-82
2022/06/30 01:51:37;;;;;;;;;;;20.50;99.90;;;;;;4992739;28;19906;-82
2022/06/30 01:54:03;;;;;;;;;;;20.50;99.90;;;;;;4989825;28;19979;-82
2022/06/30 01:56:28;;;;;;;;;;;20.50;99.90;;;;;;4988109;28;19918;-82
2022/06/30 01:58:54;;;;;;;;;;;20.50;99.90;;;;;;4985632;28;19906;-83
2022/06/30 02:01:19;;;;;;;;;;;20.50;99.90;;;;;;4980024;28;19999;-84
2022/06/30 02:03:45;;;;;;;;;;;20.50;99.90;;;;;;4991137;28;19917;-84
2022/06/30 02:06:10;;;;;;;;;;;20.50;99.90;;;;;;4992392;28;19964;-84
2022/06/30 02:08:36;;;;;;;;;;;20.60;99.90;;;;;;4979714;28;19968;-84
2022/06/30 02:11:01;;;;;;;;;;;20.60;99.90;;;;;;4986645;28;20293;-84
2022/06/30 02:13:26;;;;;;;;;;;20.60;99.90;;;;;;4984699;28;19905;-84
2022/06/30 02:15:52;;;;;;;;;;;20.60;99.90;;;;;;4990960;28;19992;-84
2022/06/30 02:18:17;;;;;;;;;;;20.60;99.90;;;;;;4989196;28;19957;-85
2022/06/30 02:20:43;;;;;;;;;;;20.50;99.90;;;;;;4990317;28;20004;-84
2022/06/30 02:23:08;;;;;;;;;;;20.50;99.90;;;;;;4991900;28;20408;-84
2022/06/30 02:25:34;;;;;;;;;;;20.60;99.90;;;;;;4994417;28;19948;-83
2022/06/30 02:28:02;;;;;;;;;;;20.50;99.90;;;;;;4991579;28;19905;-84
2022/06/30 02:30:28;;;;;;;;;;;20.50;99.90;;;;;;5002044;28;20420;-83
2022/06/30 02:32:53;;;;;;;;;;;20.50;99.90;;;;;;4990654;28;19913;-84
2022/06/30 02:35:19;;;;;;;;;;;20.60;99.90;;;;;;4990345;28;20376;-82
2022/06/30 02:37:44;;;;;;;;;;;20.50;99.90;;;;;;4991960;28;20392;-84
2022/06/30 02:40:10;;;;;;;;;;;20.50;99.90;;;;;;4990811;28;19906;-84
2022/06/30 02:42:36;;;;;;;;;;;20.50;99.90;;;;;;4986446;28;19910;-82
2022/06/30 02:45:01;;;;;;;;;;;20.50;99.90;;;;;;4990702;28;20008;-82
2022/06/30 02:47:33;;;;;;;;;;;20.50;99.90;;;;;;4990049;28;19906;-81
2022/06/30 02:50:00;;;;;;;;;;;20.50;99.90;;;;;;4989602;28;19921;-83
2022/06/30 02:52:25;;;;;;;;;;;20.50;99.90;;;;;;4987106;28;19909;-83
2022/06/30 02:54:50;;;;;;;;;;;20.40;99.90;;;;;;4989552;28;19917;-84
2022/06/30 02:57:16;;;;;;;;;;;20.40;99.90;;;;;;4975721;28;19910;-83
2022/06/30 02:59:41;;;;;;;;;;;20.30;99.90;;;;;;4990228;28;20053;-81
2022/06/30 03:02:06;;;;;;;;;;;20.30;99.90;;;;;;4990154;28;19910;-81
2022/06/30 03:04:32;;;;;;;;;;;20.30;99.90;;;;;;4990517;28;19910;-81
2022/06/30 03:06:57;;;;;;;;;;;20.40;99.90;;;;;;4990161;28;19921;-83
2022/06/30 03:09:23;;;;;;;;;;;20.30;99.90;;;;;;4991581;28;19909;-83
2022/06/30 03:11:49;;;;;;;;;;;20.30;99.90;;;;;;5002547;28;19914;-84
2022/06/30 03:14:14;;;;;;;;;;;20.30;99.90;;;;;;4987719;28;19977;-84
2022/06/30 03:16:40;;;;;;;;;;;20.40;99.90;;;;;;4991568;28;20419;-83
2022/06/30 03:19:05;;;;;;;;;;;20.40;99.90;;;;;;4984513;28;19910;-84
2022/06/30 03:21:31;;;;;;;;;;;20.30;99.90;;;;;;4979228;28;20369;-84
2022/06/30 03:23:56;;;;;;;;;;;20.30;99.90;;;;;;4985454;28;19910;-84
2022/06/30 03:26:21;;;;;;;;;;;20.30;99.90;;;;;;4980659;28;20373;-84
2022/06/30 03:28:47;;;;;;;;;;;20.30;99.90;;;;;;4991452;28;19988;-84
2022/06/30 03:31:12;;;;;;;;;;;20.40;99.90;;;;;;4991206;28;20130;-81
2022/06/30 03:33:38;;;;;;;;;;;20.30;99.90;;;;;;4989774;28;19916;-82
2022/06/30 03:36:03;;;;;;;;;;;20.30;99.90;;;;;;4987546;28;21666;-84
2022/06/30 03:38:29;;;;;;;;;;;20.40;99.90;;;;;;4985777;28;20372;-82
2022/06/30 03:40:54;;;;;;;;;;;20.40;99.90;;;;;;4983480;28;19913;-82
2022/06/30 03:43:21;;;;;;;;;;;20.40;99.90;;;;;;4985334;28;19917;-83
2022/06/30 03:45:46;;;;;;;;;;;20.40;99.90;;;;;;4991440;28;19909;-83
2022/06/30 03:48:12;;;;;;;;;;;20.40;99.90;;;;;;4988747;28;19997;-83
2022/06/30 03:50:37;;;;;;;;;;;20.40;99.90;;;;;;4989708;28;19917;-83
2022/06/30 03:53:03;;;;;;;;;;;20.30;99.90;;;;;;4991274;28;20380;-84
2022/06/30 03:55:29;;;;;;;;;;;20.30;99.90;;;;;;5000357;28;19925;-83
2022/06/30 03:57:54;;;;;;;;;;;20.20;99.90;;;;;;5014840;28;19906;-83
2022/06/30 04:00:20;;;;;;;;;;;20.20;99.90;;;;;;4992539;28;19909;-82
2022/06/30 04:02:45;;;;;;;;;;;20.20;99.90;;;;;;5005667;28;20053;-82
2022/06/30 04:05:11;;;;;;;;;;;20.10;99.90;;;;;;5009927;28;19963;-83
2022/06/30 04:07:43;;;;;;;;;;;20.10;99.90;;;;;;5008772;28;19920;-83
2022/06/30 04:10:09;;;;;;;;;;;20.10;99.90;;;;;;5001750;28;19913;-83
2022/06/30 04:12:35;;;;;;;;;;;20.20;99.90;;;;;;5005372;28;19928;-83
2022/06/30 04:15:00;;;;;;;;;;;20.20;99.90;;;;;;5001301;28;20383;-82
2022/06/30 04:17:26;;;;;;;;;;;20.30;99.90;;;;;;5009299;28;19910;-83
2022/06/30 04:19:51;;;;;;;;;;;20.30;99.90;;;;;;5007028;28;20548;-83
2022/06/30 04:22:16;;;;;;;;;;;20.30;99.90;;;;;;5010218;28;19951;-83
2022/06/30 04:24:42;;;;;;;;;;;20.40;99.90;;;;;;5005348;28;19949;-83
2022/06/30 04:27:07;;;;;;;;;;;20.40;99.90;;;;;;5007840;28;19936;-82
2022/06/30 04:29:33;;;;;;;;;;;20.40;99.90;;;;;;5005006;28;19917;-82
2022/06/30 04:34:42;;;;;;;;;;;20.60;99.90;;;;;;5010325;28;19972;-83
2022/06/30 04:37:07;;;;;;;;;;;20.70;99.90;;;;;;5003847;28;19909;-83
2022/06/30 04:39:33;;;;;;;;;;;20.80;99.90;;;;;;5009773;28;19913;-82
2022/06/30 04:41:58;;;;;;;;;;;21.00;99.90;;;;;;5011495;28;20287;-82
2022/06/30 04:44:24;;;;;;;;;;;21.20;99.90;;;;;;5006759;28;20288;-82
2022/06/30 04:46:49;;;;;;;;;;;21.30;99.90;;;;;;5012425;28;19913;-83
2022/06/30 04:49:14;;;;;;;;;;;21.40;99.90;;;;;;5013424;28;20399;-83
2022/06/30 04:51:40;;;;;;;;;;;21.40;99.90;;;;;;5013032;28;20280;-83
2022/06/30 04:54:05;;;;;;;;;;;21.40;99.90;;;;;;5012523;28;19913;-83
2022/06/30 04:56:31;;;;;;;;;;;21.30;99.90;;;;;;5012300;28;19913;-82
2022/06/30 04:58:57;;;;;;;;;;;21.40;99.90;;;;;;5007215;28;19910;-82
2022/06/30 05:01:22;;;;;;;;;;;21.30;99.90;;;;;;5007703;28;19910;-83
2022/06/30 05:03:47;;;;;;;;;;;21.30;99.90;;;;;;5005089;28;20235;-83
2022/06/30 05:06:13;;;;;;;;;;;21.20;99.90;;;;;;5017066;28;19917;-83
2022/06/30 05:08:38;;;;;;;;;;;21.00;99.90;;;;;;5001654;28;19916;-80
2022/06/30 05:11:05;;;;;;;;;;;21.10;99.90;;;;;;5020506;28;19929;-79
2022/06/30 05:13:30;;;;;;;;;;;21.10;99.90;;;;;;5006322;28;19905;-80
2022/06/30 05:15:56;;;;;;;;;;;21.20;99.90;;;;;;4998496;28;19968;-80
2022/06/30 05:18:24;;;;;;;;;;;21.20;99.90;;;;;;5002446;28;19909;-80
2022/06/30 05:20:49;;;;;;;;;;;21.30;99.90;;;;;;5010770;28;19916;-81
2022/06/30 05:23:15;;;;;;;;;;;21.40;99.90;;;;;;5013215;28;19910;-80
2022/06/30 05:28:24;;;;;;;;;;;21.70;99.90;;;;;;5011619;28;19964;-84
2022/06/30 05:30:50;;;;;;;;;;;21.70;99.90;;;;;;5010299;28;19906;-78
2022/06/30 05:33:19;;;;;;;;;;;21.70;99.90;;;;;;5017645;28;19917;-80
2022/06/30 05:35:46;;;;;;;;;;;21.70;99.90;;;;;;5018017;28;19914;-81
2022/06/30 05:38:12;;;;;;;;;;;21.70;99.90;;;;;;5000929;28;19940;-81
2022/06/30 05:40:37;;;;;;;;;;;21.80;99.90;;;;;;5013344;28;19956;-81
2022/06/30 05:43:02;;;;;;;;;;;22.10;99.90;;;;;;5015040;28;20004;-81
2022/06/30 05:45:28;;;;;;;;;;;22.10;99.90;;;;;;5013839;28;19905;-79
2022/06/30 05:47:53;;;;;;;;;;;22.10;99.90;;;;;;5016527;28;20379;-80
2022/06/30 05:50:20;;;;;;;;;;;22.10;99.90;;;;;;5016259;28;19917;-83
2022/06/30 05:52:46;;;;;;;;;;;22.00;99.90;;;;;;5015551;28;21545;-84
2022/06/30 05:55:12;;;;;;;;;;;22.00;99.90;;;;;;5016160;28;19917;-83
2022/06/30 05:57:57;;;;;;;;;;;22.10;99.90;;;;;;5015146;28;19925;-85
2022/06/30 06:00:23;;;;;;;;;;;22.10;99.90;;;;;;5014354;28;20122;-85
2022/06/30 06:02:48;;;;;;;;;;;22.10;99.90;;;;;;5010504;28;19919;-85
2022/06/30 06:05:14;;;;;;;;;;;22.10;99.90;;;;;;5016304;28;20043;-85
2022/06/30 06:07:40;;;;;;;;;;;22.10;99.90;;;;;;5016318;28;19915;-84
2022/06/30 06:10:05;;;;;;;;;;;22.10;99.90;;;;;;5012877;28;19913;-83
2022/06/30 06:12:31;;;;;;;;;;;22.10;99.90;;;;;;5011994;28;20291;-84
2022/06/30 06:14:56;;;;;;;;;;;22.20;99.90;;;;;;5013815;28;19921;-84
2022/06/30 06:17:22;;;;;;;;;;;22.20;99.90;;;;;;5017944;28;19968;-84
2022/06/30 06:19:47;;;;;;;;;;;22.20;99.90;;;;;;5018702;28;20311;-85
2022/06/30 06:22:13;;;;;;;;;;;22.00;99.90;;;;;;5014189;28;20011;-84
2022/06/30 06:24:38;;;;;;;;;;;22.10;99.90;;;;;;5016751;28;19910;-85
2022/06/30 06:27:04;;;;;;;;;;;21.90;99.90;;;;;;5014764;28;19913;-84
2022/06/30 06:29:29;;;;;;;;;;;22.00;99.90;;;;;;5016415;28;19909;-78
2022/06/30 06:31:55;;;;;;;;;;;21.90;99.90;;;;;;5010034;28;19996;-77
2022/06/30 06:34:20;;;;;;;;;;;21.80;99.90;;;;;;5003146;28;19988;-76
2022/06/30 06:36:46;;;;;;;;;;;21.70;99.90;;;;;;5010753;28;19925;-82
2022/06/30 06:39:11;;;;;;;;;;;21.80;99.90;;;;;;5015254;28;19960;-81
2022/06/30 06:41:37;;;;;;;;;;;22.00;99.90;;;;;;5014974;28;19940;-79
2022/06/30 06:44:02;;;;;;;;;;;22.10;99.90;;;;;;5018233;28;20391;-80
2022/06/30 06:46:28;;;;;;;;;;;22.20;99.90;;;;;;5019617;28;20404;-79
2022/06/30 06:48:54;;;;;;;;;;;22.30;99.90;;;;;;5018119;28;20291;-78
2022/06/30 06:51:20;;;;;;;;;;;22.30;99.90;;;;;;5016667;28;19909;-84
2022/06/30 06:53:45;;;;;;;;;;;22.20;99.90;;;;;;5009889;28;20382;-78
2022/06/30 06:56:11;;;;;;;;;;;22.30;99.90;;;;;;5014919;28;19913;-77
2022/06/30 06:58:36;;;;;;;;;;;22.50;99.90;;;;;;5016962;28;19924;-81
2022/06/30 07:01:04;;;;;;;;;;;22.70;99.90;;;;;;5013631;28;19910;-79
2022/06/30 07:03:30;;;;;;;;;;;22.80;99.90;;;;;;5020709;28;19955;-80
2022/06/30 07:05:56;;;;;;;;;;;22.90;99.90;;;;;;5019923;28;19959;-78
2022/06/30 07:08:22;;;;;;;;;;;22.80;99.90;;;;;;5020217;28;19952;-79
2022/06/30 07:10:47;;;;;;;;;;;22.60;99.90;;;;;;5015394;28;19964;-78
2022/06/30 07:13:12;;;;;;;;;;;22.40;99.90;;;;;;5018163;28;19909;-78
2022/06/30 07:15:38;;;;;;;;;;;22.30;99.90;;;;;;5015062;28;19927;-78
2022/06/30 07:18:03;;;;;;;;;;;22.20;99.90;;;;;;5018941;28;19910;-79
2022/06/30 07:20:29;;;;;;;;;;;22.20;99.90;;;;;;5014567;28;20444;-81
2022/06/30 07:22:54;;;;;;;;;;;22.40;99.90;;;;;;5015863;28;19972;-80
2022/06/30 07:25:20;;;;;;;;;;;22.50;99.90;;;;;;5013148;28;19963;-76
2022/06/30 07:27:45;;;;;;;;;;;22.50;99.90;;;;;;5018657;28;19913;-78
2022/06/30 07:30:11;;;;;;;;;;;22.70;99.90;;;;;;5012703;28;19909;-78
2022/06/30 07:32:37;;;;;;;;;;;22.60;99.90;;;;;;5015901;28;19921;-79
2022/06/30 07:35:02;;;;;;;;;;;22.70;99.90;;;;;;5010862;28;19913;-80
2022/06/30 07:37:28;;;;;;;;;;;22.90;99.90;;;;;;5012862;28;19960;-79
2022/06/30 07:39:53;;;;;;;;;;;23.30;99.90;;;;;;5003507;28;19914;-80
2022/06/30 07:42:19;;;;;;;;;;;23.40;99.90;;;;;;5001321;28;19923;-82
2022/06/30 07:44:44;;;;;;;;;;;23.20;99.90;;;;;;5018624;28;19913;-79
2022/06/30 07:47:10;;;;;;;;;;;23.40;99.90;;;;;;4997636;28;19917;-79
2022/06/30 07:49:35;;;;;;;;;;;23.40;99.90;;;;;;5009960;28;19928;-77
2022/06/30 07:52:01;;;;;;;;;;;23.50;99.90;;;;;;5010603;28;19909;-82
2022/06/30 07:54:26;;;;;;;;;;;23.60;99.90;;;;;;5014169;28;19918;-86
2022/06/30 07:56:52;;;;;;;;;;;23.60;99.90;;;;;;5004241;28;20408;-81
2022/06/30 07:59:17;;;;;;;;;;;23.60;99.90;;;;;;5006349;28;20428;-81
2022/06/30 08:01:42;;;;;;;;;;;23.80;99.90;;;;;;5006594;28;20287;-76
2022/06/30 08:04:09;;;;;;;;;;;23.70;99.90;;;;;;5010262;28;19923;-79
2022/06/30 08:06:34;;;;;;;;;;;23.60;99.90;;;;;;5019883;28;19917;-78
2022/06/30 08:09:00;;;;;;;;;;;23.80;99.80;;;;;;5004886;28;19921;-77
2022/06/30 08:11:28;;;;;;;;;;;23.70;99.90;;;;;;5011628;28;20277;-76
2022/06/30 08:13:53;;;;;;;;;;;23.40;99.90;;;;;;5007907;28;19978;-80
2022/06/30 08:16:18;;;;;;;;;;;23.00;99.90;;;;;;5012978;28;20396;-78
2022/06/30 08:18:44;;;;;;;;;;;23.00;99.90;;;;;;5012614;28;20248;-79
2022/06/30 08:21:09;;;;;;;;;;;22.70;99.90;;;;;;5013978;28;19920;-78
2022/06/30 08:23:36;;;;;;;;;;;22.70;99.90;;;;;;5012578;28;19935;-77
2022/06/30 08:26:01;;;;;;;;;;;22.70;99.90;;;;;;5005472;28;19910;-77
2022/06/30 08:28:27;;;;;;;;;;;22.80;99.90;;;;;;5004711;28;19915;-77
2022/06/30 08:30:52;;;;;;;;;;;22.60;99.90;;;;;;4999384;28;19909;-77
2022/06/30 08:33:18;;;;;;;;;;;22.60;99.90;;;;;;5004308;28;20412;-78
2022/06/30 08:35:43;;;;;;;;;;;22.80;99.90;;;;;;5003252;28;20360;-77
2022/06/30 08:38:09;;;;;;;;;;;22.80;99.90;;;;;;5003059;28;19963;-80
2022/06/30 08:43:19;;;;;;;;;;;22.90;99.90;;;;;;5008251;28;19916;-84
2022/06/30 08:45:44;;;;;;;;;;;22.90;99.90;;;;;;5006547;28;20375;-84
2022/06/30 08:48:10;;;;;;;;;;;23.00;99.90;;;;;;5004898;28;19910;-80
2022/06/30 08:50:35;;;;;;;;;;;23.10;99.90;;;;;;5014340;28;19909;-82
2022/06/30 08:53:02;;;;;;;;;;;23.30;99.90;;;;;;5008895;28;19909;-79
2022/06/30 08:55:29;;;;;;;;;;;23.60;99.90;;;;;;5007122;28;20380;-78
2022/06/30 08:57:58;;;;;;;;;;;23.90;99.90;;;;;;5007396;28;19987;-79
2022/06/30 09:00:23;;;;;;;;;;;24.10;99.90;;;;;;5007073;28;19914;-79
2022/06/30 09:02:49;;;;;;;;;;;24.30;99.90;;;;;;5007999;28;19916;-81
2022/06/30 09:05:15;;;;;;;;;;;24.40;99.90;;;;;;5007320;28;19910;-80
2022/06/30 09:07:41;;;;;;;;;;;24.60;99.90;;;;;;5008656;28;19909;-76
2022/06/30 09:10:06;;;;;;;;;;;24.50;99.90;;;;;;5012907;28;19967;-80
2022/06/30 09:12:32;;;;;;;;;;;24.60;99.90;;;;;;5003756;28;20004;-79
2022/06/30 09:14:57;;;;;;;;;;;24.40;99.90;;;;;;5006460;28;19917;-82
2022/06/30 09:17:24;;;;;;;;;;;24.50;99.90;;;;;;5003865;28;19913;-80
2022/06/30 09:19:55;;;;;;;;;;;24.60;99.90;;;;;;5008197;28;19957;-81
2022/06/30 09:22:24;;;;;;;;;;;24.70;99.90;;;;;;5009734;28;19917;-83
2022/06/30 09:25:00;;;;;;;;;;;24.80;99.90;;;;;;5008441;28;19913;-81
2022/06/30 09:27:27;;;;;;;;;;;24.90;99.90;;;;;;5011130;28;19952;-81
2022/06/30 09:30:01;;;;;;;;;;;25.20;99.90;;;;;;5013672;28;19928;-82
2022/06/30 09:32:26;;;;;;;;;;;25.40;98.30;;;;;;5013673;28;20446;-84
2022/06/30 09:35:06;;;;;;;;;;;25.40;98.60;;;;;;5006457;28;19913;-79
2022/06/30 09:37:31;;;;;;;;;;;25.00;99.10;;;;;;5009484;28;19910;-81
2022/06/30 09:39:57;;;;;;;;;;;25.30;99.10;;;;;;5009377;28;20003;-80
2022/06/30 09:42:39;;;;;;;;;;;25.60;97.90;;;;;;5010694;28;19916;-80
2022/06/30 09:45:06;;;;;;;;;;;25.40;97.30;;;;;;5010414;28;19913;-81
2022/06/30 09:47:31;;;;;;;;;;;25.20;97.50;;;;;;5011012;28;19913;-82
2022/06/30 09:50:00;;;;;;;;;;;25.60;97.50;;;;;;5008621;28;19936;-80
2022/06/30 09:52:26;;;;;;;;;;;25.80;98.60;;;;;;5011460;28;19910;-82
2022/06/30 09:54:54;;;;;;;;;;;25.60;96.00;;;;;;5008456;28;19917;-79
2022/06/30 09:57:19;;;;;;;;;;;25.70;96.30;;;;;;5009234;28;19909;-78
2022/06/30 09:59:45;;;;;;;;;;;26.00;95.90;;;;;;5010733;28;19910;-81
2022/06/30 10:02:11;;;;;;;;;;;26.10;97.50;;;;;;5011295;28;20434;-78
2022/06/30 10:04:53;;;;;;;;;;;26.30;94.80;;;;;;5011078;28;19909;-82
2022/06/30 10:07:34;;;;;;;;;;;26.40;94.30;;;;;;5007093;28;19909;-76
2022/06/30 10:09:59;;;;;;;;;;;26.10;95.10;;;;;;5009354;28;19920;-77
2022/06/30 10:12:25;;;;;;;;;;;26.00;96.40;;;;;;5008147;28;19917;-76
2022/06/30 10:14:51;;;;;;;;;;;26.00;96.00;;;;;;5007232;28;19917;-76
2022/06/30 10:17:18;;;;;;;;;;;26.20;95.70;;;;;;5010324;28;19913;-77
2022/06/30 10:19:44;;;;;;;;;;;26.30;95.00;;;;;;5010421;28;19913;-77
2022/06/30 10:22:11;;;;;;;;;;;26.30;94.70;;;;;;5010683;28;20005;-76
2022/06/30 10:24:37;;;;;;;;;;;26.10;93.70;;;;;;5009141;28;19913;-76
2022/06/30 10:27:12;;;;;;;;;;;26.50;94.60;;;;;;5011814;28;20224;-76
2022/06/30 10:29:43;;;;;;;;;;;26.80;94.80;;;;;;5010051;28;19964;-77
2022/06/30 10:32:14;;;;;;;;;;;26.80;93.80;;;;;;5011334;28;19912;-76
2022/06/30 10:34:42;;;;;;;;;;;27.20;92.70;;;;;;5008327;28;19917;-76
2022/06/30 10:37:12;;;;;;;;;;;26.80;93.70;;;;;;5009736;28;19941;-76
2022/06/30 10:39:43;;;;;;;;;;;27.40;95.00;;;;;;5011050;28;20280;-77
2022/06/30 10:42:08;;;;;;;;;;;27.70;91.90;;;;;;4991611;28;19964;-76
2022/06/30 10:44:34;;;;;;;;;;;27.30;91.60;;;;;;5004157;28;19913;-76
2022/06/30 10:47:04;;;;;;;;;;;27.00;91.60;;;;;;5009834;28;20555;-77
2022/06/30 10:49:29;;;;;;;;;;;26.90;91.90;;;;;;5010834;28;19963;-76
2022/06/30 10:51:56;;;;;;;;;;;26.70;94.00;;;;;;5007825;28;20008;-77
2022/06/30 10:54:32;;;;;;;;;;;26.50;92.70;;;;;;5009737;28;19987;-76
2022/06/30 10:56:58;;;;;;;;;;;26.50;92.50;;;;;;5009696;28;20003;-76
2022/06/30 10:59:28;;;;;;;;;;;26.70;92.20;;;;;;5010900;28;20059;-77
2022/06/30 11:02:09;;;;;;;;;;;26.90;95.10;;;;;;5010849;28;20259;-77
2022/06/30 11:04:35;;;;;;;;;;;27.50;93.70;;;;;;5008918;28;19909;-76
2022/06/30 11:07:06;;;;;;;;;;;27.80;93.90;;;;;;5008958;28;20382;-77
2022/06/30 11:09:44;;;;;;;;;;;28.20;90.60;;;;;;5007941;28;20000;-78
2022/06/30 11:12:10;;;;;;;;;;;28.30;85.50;;;;;;5010199;28;19921;-77
2022/06/30 11:14:36;;;;;;;;;;;28.00;86.90;;;;;;5009180;28;19940;-76
2022/06/30 11:17:12;;;;;;;;;;;27.80;88.20;;;;;;4999172;28;19957;-76
2022/06/30 11:19:38;;;;;;;;;;;27.60;87.10;;;;;;5000712;28;19925;-77
2022/06/30 11:22:04;;;;;;;;;;;27.80;90.70;;;;;;4995725;28;19939;-75
2022/06/30 11:24:30;;;;;;;;;;;28.20;90.40;;;;;;5009893;28;19932;-77
2022/06/30 11:29:39;;;;;;;;;;;28.70;87.50;;;;;;5010271;28;19952;-77
2022/06/30 11:32:05;;;;;;;;;;;28.50;83.80;;;;;;5008334;28;19914;-76
2022/06/30 11:34:35;;;;;;;;;;;28.10;87.40;;;;;;5009324;28;19917;-77
2022/06/30 11:37:01;;;;;;;;;;;27.80;87.10;;;;;;5008077;28;19916;-76
2022/06/30 11:39:28;;;;;;;;;;;27.00;89.80;;;;;;5009943;28;19905;-76
2022/06/30 11:41:57;;;;;;;;;;;26.90;91.70;;;;;;5010004;28;20576;-77
2022/06/30 11:44:25;;;;;;;;;;;27.40;89.70;;;;;;5010540;28;19928;-76
2022/06/30 11:47:04;;;;;;;;;;;27.90;86.50;;;;;;5010154;28;19912;-76
2022/06/30 11:49:52;;;;;;;;;;;27.90;88.70;;;;;;5007142;28;19913;-76
2022/06/30 11:52:31;;;;;;;;;;;28.10;86.10;;;;;;5007864;28;19909;-77
2022/06/30 11:54:58;;;;;;;;;;;28.50;85.70;;;;;;5009288;28;20008;-76
2022/06/30 11:57:24;;;;;;;;;;;28.40;87.00;;;;;;5007888;28;20087;-79
2022/06/30 11:59:51;;;;;;;;;;;28.80;85.30;;;;;;5007574;28;19913;-79
2022/06/30 12:02:17;;;;;;;;;;;29.80;82.40;;;;;;5008665;28;19909;-78
2022/06/30 12:04:43;;;;;;;;;;;30.90;76.50;;;;;;5007587;28;20012;-78
2022/06/30 12:07:09;;;;;;;;;;;31.20;73.70;;;;;;5007421;28;20055;-79
2022/06/30 12:09:35;;;;;;;;;;;31.20;74.40;;;;;;5010005;28;19964;-79
2022/06/30 12:12:01;;;;;;;;;;;32.00;72.30;;;;;;5008893;28;20339;-79
2022/06/30 12:14:30;;;;;;;;;;;31.70;67.40;;;;;;5009469;28;19905;-79
2022/06/30 12:16:56;;;;;;;;;;;31.00;70.50;;;;;;5001648;28;19921;-78
2022/06/30 12:19:23;;;;;;;;;;;30.50;73.30;;;;;;5009748;28;19913;-79
2022/06/30 12:21:49;;;;;;;;;;;30.80;70.50;;;;;;5009499;28;20105;-79
2022/06/30 12:24:15;;;;;;;;;;;30.30;74.00;;;;;;5008207;28;19916;-78
2022/06/30 12:26:47;;;;;;;;;;;31.40;70.60;;;;;;5009009;28;19992;-80
2022/06/30 12:29:13;;;;;;;;;;;32.40;63.00;;;;;;5009643;28;20361;-79
2022/06/30 12:31:38;;;;;;;;;;;33.00;63.40;;;;;;5006660;28;19965;-80
2022/06/30 12:34:04;;;;;;;;;;;33.30;58.50;;;;;;5006432;28;19971;-79
2022/06/30 12:36:31;;;;;;;;;;;34.20;59.30;;;;;;5009031;28;19921;-78
2022/06/30 12:38:57;;;;;;;;;;;33.00;59.40;;;;;;5008685;28;19912;-79
2022/06/30 12:41:23;;;;;;;;;;;32.30;60.70;;;;;;5005571;28;20220;-79
2022/06/30 12:43:50;;;;;;;;;;;33.20;58.90;;;;;;5008135;28;20435;-79
2022/06/30 12:46:16;;;;;;;;;;;33.00;59.90;;;;;;5007697;28;20004;-79
2022/06/30 12:48:43;;;;;;;;;;;32.30;62.10;;;;;;5008880;28;19909;-79
2022/06/30 12:51:10;;;;;;;;;;;32.20;63.20;;;;;;5008335;28;19909;-79
2022/06/30 12:53:36;;;;;;;;;;;32.30;61.40;;;;;;5007595;28;19909;-79
2022/06/30 12:56:08;;;;;;;;;;;32.10;63.30;;;;;;5008426;28;19917;-79
2022/06/30 12:58:48;;;;;;;;;;;31.60;66.10;;;;;;5008736;28;20019;-79
2022/06/30 13:01:18;;;;;;;;;;;30.90;64.40;;;;;;5010150;28;19968;-79
2022/06/30 13:03:54;;;;;;;;;;;30.60;66.30;;;;;;5009965;28;19905;-80
2022/06/30 13:06:21;;;;;;;;;;;31.30;68.60;;;;;;5010221;28;19909;-79
2022/06/30 13:08:46;;;;;;;;;;;31.00;66.80;;;;;;5012063;28;19905;-80
2022/06/30 13:11:21;;;;;;;;;;;30.80;66.50;;;;;;5012229;28;19921;-80
2022/06/30 13:13:46;;;;;;;;;;;31.10;63.80;;;;;;5013068;28;19905;-80
2022/06/30 13:16:12;;;;;;;;;;;31.50;65.20;;;;;;5010556;28;20632;-80
2022/06/30 13:18:38;;;;;;;;;;;31.60;63.00;;;;;;5010501;28;19913;-80
2022/06/30 13:21:03;;;;;;;;;;;31.90;63.10;;;;;;5010235;28;19940;-80
2022/06/30 13:23:29;;;;;;;;;;;32.10;61.90;;;;;;5012656;28;20520;-81
2022/06/30 13:25:54;;;;;;;;;;;32.50;63.50;;;;;;5010982;28;19957;-80
2022/06/30 13:28:20;;;;;;;;;;;31.90;61.20;;;;;;5011234;28;20352;-81
2022/06/30 13:30:45;;;;;;;;;;;30.90;62.30;;;;;;5011141;28;19909;-78
2022/06/30 13:33:11;;;;;;;;;;;30.00;66.00;;;;;;5010564;28;19932;-81
2022/06/30 13:35:37;;;;;;;;;;;30.00;66.10;;;;;;5009917;28;19920;-80
2022/06/30 13:38:02;;;;;;;;;;;29.80;70.20;;;;;;5010952;28;19909;-78
2022/06/30 13:40:27;;;;;;;;;;;29.40;72.00;;;;;;5002511;28;20008;-78
2022/06/30 13:42:53;;;;;;;;;;;29.40;72.50;;;;;;5010529;28;20176;-78
2022/06/30 13:45:18;;;;;;;;;;;29.50;72.10;;;;;;5009300;28;20292;-78
2022/06/30 13:47:44;;;;;;;;;;;29.90;69.40;;;;;;5010828;28;19920;-79
2022/06/30 13:50:09;;;;;;;;;;;30.60;68.70;;;;;;5011718;28;19951;-79
2022/06/30 13:52:35;;;;;;;;;;;33.90;62.00;;;;;;5012368;28;20064;-79
2022/06/30 13:55:01;;;;;;;;;;;36.70;54.40;;;;;;5011184;28;19924;-79
2022/06/30 13:57:26;;;;;;;;;;;38.30;51.80;;;;;;5009446;28;19913;-80
2022/06/30 13:59:52;;;;;;;;;;;40.10;46.70;;;;;;5011483;28;19976;-80
2022/06/30 14:02:17;;;;;;;;;;;41.10;44.00;;;;;;5012476;28;20079;-80
2022/06/30 14:04:43;;;;;;;;;;;41.50;43.20;;;;;;5011160;28;19905;-79
2022/06/30 14:07:08;;;;;;;;;;;38.90;45.10;;;;;;5010979;28;19913;-80
2022/06/30 14:09:33;;;;;;;;;;;37.20;50.00;;;;;;5006283;28;19909;-81
2022/06/30 14:12:02;;;;;;;;;;;36.30;48.90;;;;;;5000538;28;19909;-80
2022/06/30 14:14:28;;;;;;;;;;;36.30;49.40;;;;;;5008010;28;19921;-82
2022/06/30 14:16:57;;;;;;;;;;;38.70;46.20;;;;;;4994721;28;19920;-81
2022/06/30 14:19:23;;;;;;;;;;;40.90;44.30;;;;;;5008072;28;19915;-83
2022/06/30 14:21:49;;;;;;;;;;;42.00;41.00;;;;;;5007392;28;19909;-81
2022/06/30 14:24:14;;;;;;;;;;;42.90;40.20;;;;;;5015335;28;19913;-83
2022/06/30 14:26:40;;;;;;;;;;;41.80;40.40;;;;;;5011065;28;20423;-81